createdAt,value
2019-03-17T00:01:38.787Z,18.60
2019-03-17T00:04:10.714Z,19.47
2019-03-17T00:06:42.616Z,19.63
2019-03-17T00:09:14.347Z,22.90
2019-03-17T00:11:46.284Z,19.50
2019-03-17T00:14:20.288Z,21.60
2019-03-17T00:16:52.114Z,19.23
2019-03-17T00:19:23.794Z,23.27
2019-03-17T00:21:55.534Z,18.27
2019-03-17T00:24:27.583Z,23.47
2019-03-17T00:26:59.219Z,22.77
2019-03-17T00:29:31.037Z,20.03
2019-03-17T00:32:02.757Z,17.63
2019-03-17T00:34:43.725Z,24.57
2019-03-17T00:37:08.214Z,20.17
2019-03-17T00:39:39.944Z,23.87
2019-03-17T00:42:11.653Z,20.03
2019-03-17T00:44:43.222Z,23.53
2019-03-17T00:47:15.031Z,17.30
2019-03-17T00:49:46.677Z,19.30
2019-03-17T00:52:18.453Z,20.83
2019-03-17T00:54:50.172Z,18.63
2019-03-17T00:57:21.828Z,17.17
2019-03-17T00:59:53.558Z,16.20
2019-03-17T01:02:25.296Z,18.87
2019-03-17T01:04:57.177Z,18.17
2019-03-17T01:07:28.860Z,17.83
2019-03-17T01:10:00.705Z,20.70
2019-03-17T01:12:32.411Z,19.40
2019-03-17T01:15:04.002Z,16.43
2019-03-17T01:17:35.654Z,19.10
2019-03-17T01:20:09.030Z,19.20
2019-03-17T01:22:40.689Z,14.33
2019-03-17T01:25:13.131Z,15.60
2019-03-17T01:27:44.880Z,13.60
2019-03-17T01:30:16.567Z,17.40
2019-03-17T01:32:48.335Z,14.40
2019-03-17T01:35:20.246Z,14.63
2019-03-17T01:37:52.066Z,11.90
2019-03-17T01:40:23.689Z,15.27
2019-03-17T01:42:55.450Z,17.07
2019-03-17T01:45:27.117Z,12.60
2019-03-17T01:47:58.756Z,16.10
2019-03-17T01:50:30.580Z,15.63
2019-03-17T01:53:02.247Z,17.00
2019-03-17T01:55:33.926Z,16.50
2019-03-17T01:58:06.069Z,14.80
2019-03-17T02:00:38.056Z,16.57
2019-03-17T02:03:09.781Z,12.13
2019-03-17T02:05:41.585Z,14.13
2019-03-17T02:08:13.677Z,15.57
2019-03-17T02:10:45.307Z,12.63
2019-03-17T02:13:17.051Z,14.23
2019-03-17T02:15:48.837Z,15.83
2019-03-17T02:18:20.638Z,16.10
2019-03-17T02:20:52.394Z,14.37
2019-03-17T02:23:24.119Z,23.53
2019-03-17T02:25:55.989Z,19.30
2019-03-17T02:28:27.731Z,17.10
2019-03-17T02:31:00.480Z,17.90
2019-03-17T02:33:32.095Z,16.77
2019-03-17T02:36:03.686Z,18.10
2019-03-17T02:38:35.478Z,19.43
2019-03-17T02:41:07.398Z,17.57
2019-03-17T02:43:39.113Z,16.87
2019-03-17T02:46:10.849Z,18.53
2019-03-17T02:48:42.573Z,18.17
2019-03-17T02:51:14.387Z,18.00
2019-03-17T02:53:46.074Z,13.73
2019-03-17T02:56:17.760Z,17.90
2019-03-17T02:58:49.403Z,15.40
2019-03-17T03:01:21.201Z,14.80
2019-03-17T03:03:52.959Z,13.27
2019-03-17T03:06:24.818Z,18.37
2019-03-17T03:08:56.523Z,18.73
2019-03-17T03:11:28.416Z,15.63
2019-03-17T03:14:00.047Z,16.77
2019-03-17T03:16:31.871Z,16.57
2019-03-17T03:19:03.626Z,17.10
2019-03-17T03:21:35.267Z,17.33
2019-03-17T03:24:06.927Z,16.77
2019-03-17T03:26:39.617Z,17.50
2019-03-17T03:29:11.508Z,15.90
2019-03-17T03:31:43.295Z,14.93
2019-03-17T03:34:15.042Z,18.70
2019-03-17T03:36:46.828Z,17.60
2019-03-17T03:39:18.372Z,18.57
2019-03-17T03:41:50.091Z,19.80
2019-03-17T03:44:21.901Z,18.80
2019-03-17T03:46:53.659Z,18.90
2019-03-17T03:49:25.903Z,19.33
2019-03-17T03:51:57.720Z,18.63
2019-03-17T03:54:29.374Z,23.30
2019-03-17T03:57:01.106Z,21.23
2019-03-17T03:59:32.812Z,20.60
2019-03-17T04:02:04.638Z,21.60
2019-03-17T04:04:37.357Z,20.73
2019-03-17T04:07:09.100Z,21.67
2019-03-17T04:09:40.850Z,20.50
2019-03-17T04:12:12.760Z,21.30
2019-03-17T04:14:44.439Z,21.00
2019-03-17T04:17:16.189Z,22.17
2019-03-17T04:19:47.933Z,24.63
2019-03-17T04:22:19.683Z,20.63
2019-03-17T04:24:51.497Z,21.47
2019-03-17T04:27:24.268Z,22.87
2019-03-17T04:29:55.950Z,24.60
2019-03-17T04:32:27.615Z,26.63
2019-03-17T04:34:59.342Z,23.13
2019-03-17T04:37:31.746Z,23.93
2019-03-17T04:40:03.398Z,24.07
2019-03-17T04:42:35.055Z,23.37
2019-03-17T04:45:07.847Z,26.10
2019-03-17T04:47:39.684Z,24.53
2019-03-17T04:50:11.492Z,27.83
2019-03-17T04:52:43.373Z,28.67
2019-03-17T04:55:16.165Z,26.83
2019-03-17T04:57:48.036Z,25.20
2019-03-17T05:00:20.009Z,28.93
2019-03-17T05:02:51.819Z,34.80
2019-03-17T05:05:24.482Z,24.93
2019-03-17T05:07:56.147Z,29.20
2019-03-17T05:10:27.872Z,27.67
2019-03-17T05:12:59.571Z,27.77
2019-03-17T05:15:31.635Z,27.43
2019-03-17T05:18:03.424Z,27.80
2019-03-17T05:20:35.150Z,30.43
2019-03-17T05:23:07.014Z,26.63
2019-03-17T05:25:38.664Z,31.43
2019-03-17T05:28:10.365Z,30.23
2019-03-17T05:30:42.065Z,26.57
2019-03-17T05:33:13.739Z,30.57
2019-03-17T05:35:45.503Z,27.23
2019-03-17T05:38:17.134Z,26.20
2019-03-17T05:40:48.854Z,28.67
2019-03-17T05:43:20.672Z,27.83
2019-03-17T05:45:52.451Z,26.57
2019-03-17T05:48:24.090Z,28.60
2019-03-17T05:50:55.801Z,26.57
2019-03-17T05:53:27.652Z,28.50
2019-03-17T05:56:01.091Z,28.30
2019-03-17T05:58:32.741Z,26.70
2019-03-17T06:01:04.581Z,26.23
2019-03-17T06:03:37.301Z,26.33
2019-03-17T06:06:09.067Z,25.07
2019-03-17T06:08:40.852Z,26.23
2019-03-17T06:11:12.501Z,25.30
2019-03-17T06:13:44.207Z,25.40
2019-03-17T06:16:15.876Z,25.97
2019-03-17T06:18:47.626Z,25.37
2019-03-17T06:21:19.372Z,25.77
2019-03-17T06:23:50.945Z,25.57
2019-03-17T06:26:22.723Z,27.30
2019-03-17T06:28:54.793Z,25.70
2019-03-17T06:31:26.562Z,24.13
2019-03-17T06:33:58.215Z,24.87
2019-03-17T06:36:30.019Z,24.17
2019-03-17T06:39:01.700Z,24.23
2019-03-17T06:41:34.853Z,26.17
2019-03-17T06:44:06.602Z,24.73
2019-03-17T06:46:38.537Z,23.60
2019-03-17T06:49:10.260Z,24.33
2019-03-17T06:51:42.300Z,23.27
2019-03-17T06:54:13.941Z,23.37
2019-03-17T06:56:45.760Z,24.17
2019-03-17T06:59:17.844Z,24.20
2019-03-17T07:01:49.709Z,23.03
2019-03-17T07:04:21.605Z,24.00
2019-03-17T07:06:54.238Z,23.13
2019-03-17T07:09:25.983Z,22.07
2019-03-17T07:11:57.824Z,21.67
2019-03-17T07:14:29.403Z,20.87
2019-03-17T07:17:01.300Z,21.70
2019-03-17T07:19:33.051Z,22.13
2019-03-17T07:22:04.784Z,20.40
2019-03-17T07:24:36.444Z,19.30
2019-03-17T07:27:09.155Z,19.13
2019-03-17T07:29:40.824Z,18.63
2019-03-17T07:32:12.617Z,18.13
2019-03-17T07:34:44.374Z,17.07
2019-03-17T07:37:16.184Z,18.50
2019-03-17T07:39:47.914Z,17.90
2019-03-17T07:42:19.645Z,17.77
2019-03-17T07:44:51.412Z,16.83
2019-03-17T07:47:23.104Z,16.27
2019-03-17T07:49:54.742Z,15.67
2019-03-17T07:52:26.562Z,15.87
2019-03-17T07:54:58.318Z,16.73
2019-03-17T07:57:30.127Z,14.40
2019-03-17T08:00:01.854Z,14.03
2019-03-17T08:02:33.646Z,14.50
2019-03-17T08:05:07.102Z,15.53
2019-03-17T08:07:39.122Z,13.37
2019-03-17T08:10:11.691Z,12.70
2019-03-17T08:12:43.460Z,13.93
2019-03-17T08:15:16.507Z,12.97
2019-03-17T08:17:48.273Z,13.53
2019-03-17T08:20:20.270Z,12.67
2019-03-17T08:22:52.081Z,11.67
2019-03-17T08:25:23.810Z,11.13
2019-03-17T08:27:55.550Z,12.67
2019-03-17T08:30:27.348Z,10.57
2019-03-17T08:32:59.139Z,10.07
2019-03-17T08:35:30.824Z,11.90
2019-03-17T08:38:02.647Z,11.07
2019-03-17T08:40:34.284Z,11.27
2019-03-17T08:43:06.104Z,10.00
2019-03-17T08:45:38.134Z,9.87
2019-03-17T08:48:12.074Z,9.90
2019-03-17T08:50:43.692Z,10.43
2019-03-17T08:53:15.424Z,10.10
2019-03-17T08:55:47.134Z,10.23
2019-03-17T08:58:18.914Z,10.50
2019-03-17T09:00:50.785Z,13.07
2019-03-17T09:03:22.485Z,10.73
2019-03-17T09:05:54.243Z,10.77
2019-03-17T09:08:34.965Z,10.23
2019-03-17T09:10:59.762Z,9.50
2019-03-17T09:13:33.203Z,9.53
2019-03-17T09:16:05.320Z,9.73
2019-03-17T09:18:37.000Z,9.33
2019-03-17T09:21:09.090Z,9.77
2019-03-17T09:23:42.699Z,9.40
2019-03-17T09:26:14.860Z,10.33
2019-03-17T09:28:46.775Z,9.80
2019-03-17T09:31:18.350Z,9.83
2019-03-17T09:33:50.491Z,8.77
2019-03-17T09:36:22.218Z,10.37
2019-03-17T09:38:54.270Z,12.33
2019-03-17T09:41:25.920Z,8.83
2019-03-17T09:43:57.580Z,9.30
2019-03-17T09:46:29.221Z,9.80
2019-03-17T09:49:00.961Z,9.07
2019-03-17T09:51:32.620Z,8.70
2019-03-17T09:54:04.392Z,9.50
2019-03-17T09:56:36.070Z,8.60
2019-03-17T09:59:07.840Z,7.93
2019-03-17T10:01:39.550Z,7.60
2019-03-17T10:04:11.339Z,8.83
2019-03-17T10:06:43.191Z,7.20
2019-03-17T10:09:14.878Z,7.50
2019-03-17T10:11:46.760Z,6.10
2019-03-17T10:14:18.460Z,6.03
2019-03-17T10:16:50.398Z,7.27
2019-03-17T10:19:22.420Z,7.87
2019-03-17T10:21:54.312Z,6.90
2019-03-17T10:24:25.990Z,7.67
2019-03-17T10:26:57.672Z,8.63
2019-03-17T10:29:29.410Z,7.67
2019-03-17T10:32:01.180Z,7.03
2019-03-17T10:34:34.010Z,7.00
2019-03-17T10:37:05.893Z,7.80
2019-03-17T10:39:37.590Z,7.47
2019-03-17T10:42:09.560Z,7.50
2019-03-17T10:44:41.714Z,7.73
2019-03-17T10:47:13.848Z,8.17
2019-03-17T10:49:45.710Z,7.23
2019-03-17T10:52:17.328Z,8.33
2019-03-17T10:54:49.080Z,7.60
2019-03-17T10:57:20.970Z,6.70
2019-03-17T10:59:53.250Z,6.17
2019-03-17T11:02:25.062Z,5.97
2019-03-17T11:04:56.801Z,8.20
2019-03-17T11:07:28.573Z,7.33
2019-03-17T11:10:00.251Z,6.63
2019-03-17T11:12:32.117Z,5.93
2019-03-17T11:15:04.120Z,7.03
2019-03-17T11:17:35.934Z,6.80
2019-03-17T11:20:08.794Z,5.70
2019-03-17T11:22:40.790Z,5.90
2019-03-17T11:25:12.530Z,5.97
2019-03-17T11:27:44.372Z,5.47
2019-03-17T11:30:16.330Z,5.30
2019-03-17T11:32:48.288Z,5.23
2019-03-17T11:35:21.084Z,5.07
2019-03-17T11:37:52.876Z,5.33
2019-03-17T11:40:24.897Z,6.33
2019-03-17T11:42:56.764Z,4.67
2019-03-17T11:45:28.546Z,5.77
2019-03-17T11:48:00.317Z,4.70
2019-03-17T11:50:32.081Z,5.13
2019-03-17T11:53:03.658Z,4.37
2019-03-17T11:55:35.609Z,4.73
2019-03-17T11:58:07.368Z,6.03
2019-03-17T12:00:39.303Z,3.73
2019-03-17T12:03:11.022Z,5.83
2019-03-17T12:05:42.671Z,4.40
2019-03-17T12:08:14.590Z,6.03
2019-03-17T12:10:46.328Z,3.47
2019-03-17T12:13:18.062Z,5.37
2019-03-17T12:15:50.011Z,4.50
2019-03-17T12:18:21.728Z,4.73
2019-03-17T12:20:53.467Z,3.83
2019-03-17T12:23:25.203Z,4.30
2019-03-17T12:25:56.903Z,5.20
2019-03-17T12:28:28.575Z,3.97
2019-03-17T12:31:01.952Z,3.93
2019-03-17T12:33:33.667Z,3.30
2019-03-17T12:36:05.757Z,4.20
2019-03-17T12:38:37.477Z,4.90
2019-03-17T12:41:09.146Z,3.43
2019-03-17T12:43:40.837Z,3.53
2019-03-17T12:46:12.598Z,4.03
2019-03-17T12:48:44.263Z,3.90
2019-03-17T12:51:15.896Z,5.17
2019-03-17T12:53:47.619Z,3.63
2019-03-17T12:56:19.331Z,3.70
2019-03-17T12:58:51.171Z,4.40
2019-03-17T13:01:23.038Z,3.80
2019-03-17T13:03:54.698Z,4.27
2019-03-17T13:06:26.421Z,5.10
2019-03-17T13:09:00.879Z,4.47
2019-03-17T13:11:31.396Z,4.10
2019-03-17T13:14:03.080Z,3.50
2019-03-17T13:16:34.918Z,4.73
2019-03-17T13:19:06.517Z,4.03
2019-03-17T13:21:38.236Z,4.03
2019-03-17T13:24:10.275Z,3.80
2019-03-17T13:26:42.036Z,5.77
2019-03-17T13:29:13.712Z,4.17
2019-03-17T13:31:45.543Z,4.30
2019-03-17T13:34:17.290Z,3.30
2019-03-17T13:36:49.062Z,4.47
2019-03-17T13:39:20.996Z,4.83
2019-03-17T13:41:52.800Z,3.30
2019-03-17T13:44:24.593Z,4.73
2019-03-17T13:46:56.274Z,3.47
2019-03-17T13:49:28.152Z,4.77
2019-03-17T13:51:59.970Z,4.73
2019-03-17T13:54:31.873Z,3.87
2019-03-17T13:57:03.688Z,7.43
2019-03-17T13:59:35.459Z,3.87
2019-03-17T14:02:07.296Z,4.53
2019-03-17T14:04:39.119Z,5.43
2019-03-17T14:07:10.776Z,5.73
2019-03-17T14:09:42.340Z,4.47
2019-03-17T14:12:14.193Z,5.13
2019-03-17T14:14:46.986Z,3.80
2019-03-17T14:17:19.904Z,5.53
2019-03-17T14:19:51.720Z,3.23
2019-03-17T14:22:23.543Z,3.57
2019-03-17T14:24:55.205Z,3.10
2019-03-17T14:27:27.056Z,3.77
2019-03-17T14:29:58.770Z,4.20
2019-03-17T14:32:30.569Z,4.97
2019-03-17T14:35:02.215Z,4.53
2019-03-17T14:37:33.938Z,4.63
2019-03-17T14:40:06.558Z,5.80
2019-03-17T14:42:38.452Z,4.70
2019-03-17T14:45:11.410Z,3.40
2019-03-17T14:47:43.079Z,3.60
2019-03-17T14:50:16.695Z,3.30
2019-03-17T14:52:49.464Z,3.30
2019-03-17T14:55:22.532Z,3.13
2019-03-17T14:57:54.409Z,3.10
2019-03-17T15:00:26.176Z,5.20
2019-03-17T15:02:57.845Z,3.30
2019-03-17T15:05:30.918Z,3.47
2019-03-17T15:08:02.778Z,4.07
2019-03-17T15:10:34.395Z,4.07
2019-03-17T15:13:06.259Z,4.00
2019-03-17T15:15:37.853Z,3.87
2019-03-17T15:18:09.806Z,4.03
2019-03-17T15:20:41.910Z,4.33
2019-03-17T15:23:13.734Z,3.80
2019-03-17T15:25:45.483Z,4.20
2019-03-17T15:28:17.473Z,5.30
2019-03-17T15:31:05.598Z,5.10
2019-03-17T15:33:23.023Z,3.73
2019-03-17T15:35:54.852Z,3.70
2019-03-17T15:38:26.579Z,3.97
2019-03-17T15:40:59.208Z,3.33
2019-03-17T15:43:30.985Z,4.23
2019-03-17T15:46:02.678Z,4.43
2019-03-17T15:48:35.430Z,8.13
2019-03-17T15:51:19.263Z,3.40
2019-03-17T15:53:40.488Z,3.90
2019-03-17T15:56:12.257Z,3.43
2019-03-17T15:58:44.022Z,4.17
2019-03-17T16:01:16.006Z,4.30
2019-03-17T16:03:48.161Z,5.67
2019-03-17T16:06:19.984Z,4.90
2019-03-17T16:08:51.728Z,3.93
2019-03-17T16:11:30.814Z,4.70
2019-03-17T16:13:56.904Z,4.33
2019-03-17T16:16:28.797Z,3.93
2019-03-17T16:19:00.497Z,4.30
2019-03-17T16:21:32.268Z,7.50
2019-03-17T16:24:04.037Z,4.60
2019-03-17T16:26:35.696Z,5.30
2019-03-17T16:29:07.445Z,6.60
2019-03-17T16:31:39.108Z,5.63
2019-03-17T16:34:11.861Z,5.33
2019-03-17T16:36:43.768Z,4.63
2019-03-17T16:39:15.653Z,4.17
2019-03-17T16:41:47.327Z,4.83
2019-03-17T16:44:19.123Z,5.40
2019-03-17T16:46:51.116Z,7.17
2019-03-17T16:49:22.895Z,5.07
2019-03-17T16:51:54.733Z,5.90
2019-03-17T16:54:26.408Z,6.43
2019-03-17T16:56:58.083Z,6.83
2019-03-17T16:59:29.731Z,6.87
2019-03-17T17:02:01.524Z,6.40
2019-03-17T17:04:33.121Z,10.63
2019-03-17T17:07:04.843Z,6.90
2019-03-17T17:09:36.561Z,6.23
2019-03-17T17:12:08.325Z,6.43
2019-03-17T17:14:39.969Z,7.10
2019-03-17T17:17:11.634Z,6.63
2019-03-17T17:19:43.329Z,8.17
2019-03-17T17:22:15.044Z,20.37
2019-03-17T17:24:46.913Z,13.50
2019-03-17T17:27:20.603Z,19.23
2019-03-17T17:29:52.095Z,22.40
2019-03-17T17:32:23.887Z,21.97
2019-03-17T17:34:55.821Z,16.73
2019-03-17T17:37:27.515Z,10.37
2019-03-17T17:39:59.199Z,8.90
2019-03-17T17:42:31.000Z,9.57
2019-03-17T17:45:02.711Z,8.50
2019-03-17T17:47:34.412Z,12.17
2019-03-17T17:50:07.098Z,8.80
2019-03-17T17:52:38.893Z,8.20
2019-03-17T17:55:10.692Z,7.77
2019-03-17T17:57:42.548Z,9.97
2019-03-17T18:00:17.569Z,10.87
2019-03-17T18:02:49.642Z,10.07
2019-03-17T18:05:21.262Z,10.53
2019-03-17T18:07:53.191Z,8.00
2019-03-17T18:10:25.947Z,11.07
2019-03-17T18:12:57.601Z,10.33
2019-03-17T18:15:29.460Z,10.17
2019-03-17T18:18:01.458Z,9.83
2019-03-17T18:20:33.082Z,11.13
2019-03-17T18:23:16.876Z,11.63
2019-03-17T18:25:39.137Z,14.33
2019-03-17T18:28:11.211Z,10.73
2019-03-17T18:30:42.934Z,13.83
2019-03-17T18:33:14.686Z,10.27
2019-03-17T18:35:46.346Z,10.00
2019-03-17T18:38:18.386Z,13.20
2019-03-17T18:40:50.260Z,11.50
2019-03-17T18:43:23.526Z,10.17
2019-03-17T18:45:55.175Z,10.17
2019-03-17T18:48:26.934Z,11.73
2019-03-17T18:50:59.056Z,14.43
2019-03-17T18:53:31.028Z,16.27
2019-03-17T18:56:02.909Z,15.73
2019-03-17T18:58:35.692Z,15.40
2019-03-17T19:01:07.389Z,13.70
2019-03-17T19:03:39.150Z,11.93
2019-03-17T19:06:10.768Z,14.00
2019-03-17T19:08:42.597Z,11.93
2019-03-17T19:11:14.238Z,14.70
2019-03-17T19:13:45.862Z,15.90
2019-03-17T19:16:17.587Z,12.10
2019-03-17T19:18:49.377Z,15.07
2019-03-17T19:21:21.320Z,14.13
2019-03-17T19:23:53.038Z,15.13
2019-03-17T19:26:24.866Z,13.87
2019-03-17T19:28:56.584Z,16.13
2019-03-17T19:31:28.335Z,17.97
2019-03-17T19:34:00.152Z,18.07
2019-03-17T19:36:32.416Z,15.67
2019-03-17T19:39:05.796Z,16.73
2019-03-17T19:41:37.618Z,15.60
2019-03-17T19:44:09.532Z,17.20
2019-03-17T19:46:41.225Z,16.17
2019-03-17T19:49:13.168Z,16.40
2019-03-17T19:51:44.882Z,12.77
2019-03-17T19:54:16.722Z,14.23
2019-03-17T19:56:48.463Z,12.57
2019-03-17T19:59:20.326Z,12.60
2019-03-17T20:01:52.101Z,14.73
2019-03-17T20:04:30.455Z,13.60
2019-03-17T20:06:57.396Z,13.37
2019-03-17T20:09:29.219Z,13.63
2019-03-17T20:12:02.049Z,13.17
2019-03-17T20:14:34.075Z,12.23
2019-03-17T20:17:06.024Z,12.33
2019-03-17T20:19:37.919Z,13.37
2019-03-17T20:22:09.691Z,13.47
2019-03-17T20:24:41.489Z,13.30
2019-03-17T20:27:13.306Z,11.57
2019-03-17T20:29:45.129Z,14.87
2019-03-17T20:32:17.269Z,15.10
2019-03-17T20:34:49.135Z,11.97
2019-03-17T20:37:20.897Z,17.83
2019-03-17T20:39:54.114Z,13.23
2019-03-17T20:42:27.095Z,15.13
2019-03-17T20:44:58.922Z,10.20
2019-03-17T20:47:30.807Z,11.90
2019-03-17T20:50:02.865Z,12.50
2019-03-17T20:52:35.600Z,13.73
2019-03-17T20:55:07.713Z,14.10
2019-03-17T20:57:39.503Z,14.97
2019-03-17T21:00:13.235Z,12.13
2019-03-17T21:02:44.982Z,14.07
2019-03-17T21:05:16.462Z,12.37
2019-03-17T21:07:48.147Z,17.67
2019-03-17T21:10:19.998Z,16.20
2019-03-17T21:12:52.127Z,20.37
2019-03-17T21:15:23.833Z,13.83
2019-03-17T21:17:55.591Z,14.73
2019-03-17T21:20:27.651Z,18.80
2019-03-17T21:22:59.430Z,13.10
2019-03-17T21:25:31.389Z,14.23
2019-03-17T21:28:03.151Z,16.10
2019-03-17T21:30:34.816Z,14.63
2019-03-17T21:33:06.714Z,14.37
2019-03-17T21:35:38.447Z,15.03
2019-03-17T21:38:13.023Z,14.43
2019-03-17T21:41:01.587Z,12.80
2019-03-17T21:43:18.215Z,15.97
2019-03-17T21:45:50.178Z,13.03
2019-03-17T21:48:22.889Z,12.17
2019-03-17T21:50:54.585Z,14.80
2019-03-17T21:53:26.691Z,10.17
2019-03-17T21:55:58.583Z,12.17
2019-03-17T21:58:30.270Z,12.77
2019-03-17T22:01:02.342Z,11.07
2019-03-17T22:03:34.153Z,12.10
2019-03-17T22:06:05.854Z,15.93
2019-03-17T22:08:37.668Z,11.57
2019-03-17T22:11:09.506Z,10.90
2019-03-17T22:13:41.272Z,12.30
2019-03-17T22:16:12.963Z,10.37
2019-03-17T22:18:44.605Z,11.73
2019-03-17T22:21:16.380Z,16.00
2019-03-17T22:23:48.175Z,16.80
2019-03-17T22:26:20.021Z,18.67
2019-03-17T22:28:51.691Z,20.83
2019-03-17T22:31:23.595Z,18.67
2019-03-17T22:33:55.290Z,18.43
2019-03-17T22:36:26.950Z,17.63
2019-03-17T22:38:58.755Z,18.00
2019-03-17T22:41:30.614Z,12.73
2019-03-17T22:44:02.360Z,12.93
2019-03-17T22:46:34.080Z,10.40
2019-03-17T22:49:05.862Z,9.03
2019-03-17T22:51:37.603Z,8.90
2019-03-17T22:54:09.315Z,9.80
2019-03-17T22:56:40.967Z,7.77
2019-03-17T22:59:12.616Z,7.07
2019-03-17T23:01:44.460Z,4.73
2019-03-17T23:04:16.157Z,6.40
2019-03-17T23:06:48.016Z,5.00
2019-03-17T23:09:20.092Z,5.07
2019-03-17T23:11:51.869Z,3.63
2019-03-17T23:14:35.937Z,4.43
2019-03-17T23:16:56.993Z,4.63
2019-03-17T23:19:28.670Z,3.73
2019-03-17T23:22:04.461Z,2.73
2019-03-17T23:24:36.172Z,4.23
2019-03-17T23:27:07.980Z,2.47
2019-03-17T23:29:39.693Z,2.20
2019-03-17T23:32:12.031Z,2.57
2019-03-17T23:34:43.847Z,2.30
2019-03-17T23:37:15.670Z,1.60
2019-03-17T23:39:47.324Z,1.80
2019-03-17T23:42:19.260Z,2.00
2019-03-17T23:44:51.104Z,2.00
2019-03-17T23:50:40.514Z,2.00
2019-03-17T23:53:12.324Z,3.00
2019-03-17T23:55:44.033Z,2.03
2019-03-17T23:58:15.743Z,1.87
